Warning: Javascript must be enabled to use all the features on this page!


Page Loading - Please Wait...

Click to hideNews Bulletins

Peak Streamflow for the Nation

USGS 14020300 MEACHAM CREEK AT GIBBON, OR

Umatilla County, Oregon
Hydrologic Unit Code 17070103
Latitude  45°41'20", Longitude 118°21'20" NAD27
Drainage area 176  square miles
Gage datum 1,803.05 feet above NGVD29
Output formats
Table
Graph
Tab-separated file
peakfq (watstore) format
Reselect output format
Water
Year
Date Gage
Height
(feet)
Stream-
flow
(cfs)
1976 1975-12-07 5.35 2,750
1977 1977-04-07 4.80 1,460
1978 1977-12-14 6.37 3,770
1979 1979-02-12 5.27 1,670
1980 1980-01-15 4.34 912
1981 1981-02-16 6.10 4,120
1982 1982-02-20 6.60 5,750
1983 1983-01-06 5.52 3,000
1984 1984-01-24 5.57 3,010
1985 1985-04-10 5.15 2,190
1986 1986-02-23 7.56 5,750
1987 1987-03-06 4.58 1,530
1988 1988-04-03 4.45 1,140
1989 1989-03-09 5.32 2,120
1990 1990-05-02 4.25 1,150
1991 1991-05-19 6.84 4,290
1992 1991-12-07 4.86 1,610
1993 1993-05-04 5.48 2,260
1994 1994-03-04 5.03 1,760
1995 1995-02-01 6.08 3,060
1996 1995-11-28 7.672 5,930
1997 1997-01-01 6.872 4,600
1998 1998-03-24 4.69 1,660
1999 1998-12-30 5.23 2,110
2000 2000-04-05 4.60 1,310
2001 2001-03-25 3.88 838
2002 2002-04-14 5.68 2,700
2003 2003-01-31 5.87 3,170
2004 2004-01-29 5.51 2,580
2005 2005-03-28 4.13 857
2006 2006-04-06 5.87 3,170
2007 2006-12-14 4.97 1,840
2008 2008-04-14 5.77 3,000
2009 2009-04-22 5.71 2,740
2010 2010-06-03 5.62 2,580
2011 2011-01-16 8.03 5,120
2012 2012-02-22 5.53 2,640
2013 2013-04-20 5.84 3,090
2014 2014-03-10 6.50 4,190
2015 2014-12-21 6.13 3,210
2016 2016-02-15 5.66 2,850
2017 2017-03-16 6.04 3,210
2018 2018-02-04 5.95 3,010
2019 2019-04-10 7.18 4,150
?
  Peak Gage-Height Qualification Codes.